sensor_id;sensor_type;location;lat;lon;timestamp;temperature;humidity
47845;DHT22;33605;48.822;8.796;2024-03-08T00:01:09;7.40;49.00
47845;DHT22;33605;48.822;8.796;2024-03-08T00:08:28;7.00;49.60
47845;DHT22;33605;48.822;8.796;2024-03-08T00:10:54;6.90;49.20
47845;DHT22;33605;48.822;8.796;2024-03-08T00:13:19;6.90;49.50
47845;DHT22;33605;48.822;8.796;2024-03-08T00:15:45;6.90;49.50
47845;DHT22;33605;48.822;8.796;2024-03-08T00:18:11;6.90;49.50
47845;DHT22;33605;48.822;8.796;2024-03-08T00:20:37;6.90;49.60
47845;DHT22;33605;48.822;8.796;2024-03-08T00:23:02;6.80;49.50
47845;DHT22;33605;48.822;8.796;2024-03-08T00:25:28;6.80;49.60
47845;DHT22;33605;48.822;8.796;2024-03-08T00:27:54;6.80;49.70
47845;DHT22;33605;48.822;8.796;2024-03-08T00:30:23;6.70;49.60
47845;DHT22;33605;48.822;8.796;2024-03-08T00:32:50;6.70;49.60
47845;DHT22;33605;48.822;8.796;2024-03-08T00:35:16;6.70;49.70
47845;DHT22;33605;48.822;8.796;2024-03-08T00:37:42;6.70;49.70
47845;DHT22;33605;48.822;8.796;2024-03-08T00:40:08;6.60;49.70
47845;DHT22;33605;48.822;8.796;2024-03-08T00:42:36;6.60;49.80
47845;DHT22;33605;48.822;8.796;2024-03-08T00:45:04;6.60;49.80
47845;DHT22;33605;48.822;8.796;2024-03-08T00:47:29;6.50;49.70
47845;DHT22;33605;48.822;8.796;2024-03-08T00:49:55;6.50;49.80
47845;DHT22;33605;48.822;8.796;2024-03-08T00:52:22;6.50;49.80
47845;DHT22;33605;48.822;8.796;2024-03-08T00:54:49;6.50;50.50
47845;DHT22;33605;48.822;8.796;2024-03-08T00:57:15;6.40;49.80
47845;DHT22;33605;48.822;8.796;2024-03-08T00:59:40;6.40;49.80
47845;DHT22;33605;48.822;8.796;2024-03-08T01:02:06;6.40;49.80
47845;DHT22;33605;48.822;8.796;2024-03-08T01:04:31;6.40;49.80
47845;DHT22;33605;48.822;8.796;2024-03-08T01:06:59;6.40;49.70
47845;DHT22;33605;48.822;8.796;2024-03-08T01:09:25;6.40;49.80
47845;DHT22;33605;48.822;8.796;2024-03-08T01:11:52;6.30;49.70
47845;DHT22;33605;48.822;8.796;2024-03-08T01:14:20;6.30;49.80
47845;DHT22;33605;48.822;8.796;2024-03-08T01:16:48;6.30;49.70
47845;DHT22;33605;48.822;8.796;2024-03-08T01:19:13;6.30;49.70
47845;DHT22;33605;48.822;8.796;2024-03-08T01:21:39;6.30;49.70
47845;DHT22;33605;48.822;8.796;2024-03-08T01:24:05;6.20;49.60
47845;DHT22;33605;48.822;8.796;2024-03-08T01:26:31;6.20;49.60
47845;DHT22;33605;48.822;8.796;2024-03-08T01:28:56;6.20;49.60
47845;DHT22;33605;48.822;8.796;2024-03-08T01:31:22;6.20;49.60
47845;DHT22;33605;48.822;8.796;2024-03-08T01:33:47;6.20;49.60
47845;DHT22;33605;48.822;8.796;2024-03-08T01:36:15;6.20;49.50
47845;DHT22;33605;48.822;8.796;2024-03-08T01:38:42;6.10;49.50
47845;DHT22;33605;48.822;8.796;2024-03-08T01:41:07;6.10;49.40
47845;DHT22;33605;48.822;8.796;2024-03-08T01:43:34;6.10;49.50
47845;DHT22;33605;48.822;8.796;2024-03-08T01:46:00;6.00;49.40
47845;DHT22;33605;48.822;8.796;2024-03-08T01:48:28;6.00;49.40
47845;DHT22;33605;48.822;8.796;2024-03-08T01:50:55;6.00;49.50
47845;DHT22;33605;48.822;8.796;2024-03-08T01:53:24;6.00;49.50
47845;DHT22;33605;48.822;8.796;2024-03-08T01:55:54;6.00;49.50
47845;DHT22;33605;48.822;8.796;2024-03-08T01:58:21;6.00;49.50
47845;DHT22;33605;48.822;8.796;2024-03-08T02:00:49;5.90;49.40
47845;DHT22;33605;48.822;8.796;2024-03-08T02:03:15;5.90;49.40
47845;DHT22;33605;48.822;8.796;2024-03-08T02:05:41;5.90;49.40
47845;DHT22;33605;48.822;8.796;2024-03-08T02:08:08;5.90;49.40
47845;DHT22;33605;48.822;8.796;2024-03-08T02:10:38;5.80;49.30
47845;DHT22;33605;48.822;8.796;2024-03-08T02:13:04;5.80;49.30
47845;DHT22;33605;48.822;8.796;2024-03-08T02:15:52;5.80;49.30
47845;DHT22;33605;48.822;8.796;2024-03-08T02:18:19;5.70;49.30
47845;DHT22;33605;48.822;8.796;2024-03-08T02:20:47;5.70;49.30
47845;DHT22;33605;48.822;8.796;2024-03-08T02:23:14;5.70;49.40
47845;DHT22;33605;48.822;8.796;2024-03-08T02:25:40;5.70;49.40
47845;DHT22;33605;48.822;8.796;2024-03-08T02:28:09;5.70;49.40
47845;DHT22;33605;48.822;8.796;2024-03-08T02:30:35;5.70;49.50
47845;DHT22;33605;48.822;8.796;2024-03-08T02:33:01;5.70;49.50
47845;DHT22;33605;48.822;8.796;2024-03-08T02:35:26;5.60;49.40
47845;DHT22;33605;48.822;8.796;2024-03-08T02:37:52;5.60;49.40
47845;DHT22;33605;48.822;8.796;2024-03-08T02:40:18;5.60;49.50
47845;DHT22;33605;48.822;8.796;2024-03-08T02:42:44;5.60;50.10
47845;DHT22;33605;48.822;8.796;2024-03-08T02:45:09;5.50;49.40
47845;DHT22;33605;48.822;8.796;2024-03-08T02:47:35;5.50;49.40
47845;DHT22;33605;48.822;8.796;2024-03-08T02:50:01;5.50;49.40
47845;DHT22;33605;48.822;8.796;2024-03-08T02:52:27;5.50;49.40
47845;DHT22;33605;48.822;8.796;2024-03-08T02:54:53;5.50;49.40
47845;DHT22;33605;48.822;8.796;2024-03-08T02:57:18;5.40;49.40
47845;DHT22;33605;48.822;8.796;2024-03-08T02:59:45;5.40;49.40
47845;DHT22;33605;48.822;8.796;2024-03-08T03:02:11;5.40;49.50
47845;DHT22;33605;48.822;8.796;2024-03-08T03:04:40;5.40;49.50
47845;DHT22;33605;48.822;8.796;2024-03-08T03:07:06;5.40;49.50
47845;DHT22;33605;48.822;8.796;2024-03-08T03:09:32;5.40;49.50
47845;DHT22;33605;48.822;8.796;2024-03-08T03:11:58;5.40;49.50
47845;DHT22;33605;48.822;8.796;2024-03-08T03:14:24;5.40;49.50
47845;DHT22;33605;48.822;8.796;2024-03-08T03:16:52;5.40;49.50
47845;DHT22;33605;48.822;8.796;2024-03-08T03:19:18;5.30;49.40
47845;DHT22;33605;48.822;8.796;2024-03-08T03:21:43;5.30;49.40
47845;DHT22;33605;48.822;8.796;2024-03-08T03:24:09;5.30;49.30
47845;DHT22;33605;48.822;8.796;2024-03-08T03:26:38;5.30;49.30
47845;DHT22;33605;48.822;8.796;2024-03-08T03:29:06;5.30;49.30
47845;DHT22;33605;48.822;8.796;2024-03-08T03:31:32;5.20;49.30
47845;DHT22;33605;48.822;8.796;2024-03-08T03:33:57;5.20;49.40
47845;DHT22;33605;48.822;8.796;2024-03-08T03:36:30;5.10;49.30
47845;DHT22;33605;48.822;8.796;2024-03-08T03:38:56;5.10;49.40
47845;DHT22;33605;48.822;8.796;2024-03-08T03:41:36;5.10;49.50
47845;DHT22;33605;48.822;8.796;2024-03-08T03:44:02;5.10;49.50
47845;DHT22;33605;48.822;8.796;2024-03-08T03:46:27;5.00;49.50
47845;DHT22;33605;48.822;8.796;2024-03-08T03:48:56;5.00;49.60
47845;DHT22;33605;48.822;8.796;2024-03-08T03:51:22;5.00;49.70
47845;DHT22;33605;48.822;8.796;2024-03-08T03:53:48;4.90;49.60
47845;DHT22;33605;48.822;8.796;2024-03-08T03:56:14;4.90;49.70
47845;DHT22;33605;48.822;8.796;2024-03-08T03:58:39;4.90;49.80
47845;DHT22;33605;48.822;8.796;2024-03-08T04:01:05;4.90;49.80
47845;DHT22;33605;48.822;8.796;2024-03-08T04:03:31;4.90;49.80
47845;DHT22;33605;48.822;8.796;2024-03-08T04:05:56;4.80;49.80
47845;DHT22;33605;48.822;8.796;2024-03-08T04:08:22;4.80;49.80
47845;DHT22;33605;48.822;8.796;2024-03-08T04:10:50;4.80;49.80
47845;DHT22;33605;48.822;8.796;2024-03-08T04:13:16;4.80;49.90
47845;DHT22;33605;48.822;8.796;2024-03-08T04:15:41;4.70;49.70
47845;DHT22;33605;48.822;8.796;2024-03-08T04:18:09;4.70;49.60
47845;DHT22;33605;48.822;8.796;2024-03-08T04:20:35;4.80;49.70
47845;DHT22;33605;48.822;8.796;2024-03-08T04:23:02;4.70;49.50
47845;DHT22;33605;48.822;8.796;2024-03-08T04:25:27;4.70;49.50
47845;DHT22;33605;48.822;8.796;2024-03-08T04:27:53;4.70;49.60
47845;DHT22;33605;48.822;8.796;2024-03-08T04:30:19;4.60;49.50
47845;DHT22;33605;48.822;8.796;2024-03-08T04:32:46;4.70;49.70
47845;DHT22;33605;48.822;8.796;2024-03-08T04:35:12;4.90;49.90
47845;DHT22;33605;48.822;8.796;2024-03-08T04:37:38;4.60;49.60
47845;DHT22;33605;48.822;8.796;2024-03-08T04:40:05;4.60;49.70
47845;DHT22;33605;48.822;8.796;2024-03-08T04:42:31;4.50;49.60
47845;DHT22;33605;48.822;8.796;2024-03-08T04:44:58;4.50;49.70
47845;DHT22;33605;48.822;8.796;2024-03-08T04:47:24;4.50;49.80
47845;DHT22;33605;48.822;8.796;2024-03-08T04:49:50;4.50;49.80
47845;DHT22;33605;48.822;8.796;2024-03-08T04:52:16;4.40;49.70
47845;DHT22;33605;48.822;8.796;2024-03-08T04:54:42;4.40;49.80
47845;DHT22;33605;48.822;8.796;2024-03-08T04:57:08;4.40;49.80
47845;DHT22;33605;48.822;8.796;2024-03-08T04:59:34;4.40;49.90
47845;DHT22;33605;48.822;8.796;2024-03-08T05:01:59;4.30;49.80
47845;DHT22;33605;48.822;8.796;2024-03-08T05:04:25;4.30;49.90
47845;DHT22;33605;48.822;8.796;2024-03-08T05:06:51;4.30;50.00
47845;DHT22;33605;48.822;8.796;2024-03-08T05:09:16;4.30;50.00
47845;DHT22;33605;48.822;8.796;2024-03-08T05:11:43;4.30;50.10
47845;DHT22;33605;48.822;8.796;2024-03-08T05:14:10;4.20;50.00
47845;DHT22;33605;48.822;8.796;2024-03-08T05:16:35;4.20;50.10
47845;DHT22;33605;48.822;8.796;2024-03-08T05:19:02;4.20;50.20
47845;DHT22;33605;48.822;8.796;2024-03-08T05:21:27;4.20;50.30
47845;DHT22;33605;48.822;8.796;2024-03-08T05:23:54;4.10;50.20
47845;DHT22;33605;48.822;8.796;2024-03-08T05:26:20;4.10;50.20
47845;DHT22;33605;48.822;8.796;2024-03-08T05:28:48;4.10;50.30
47845;DHT22;33605;48.822;8.796;2024-03-08T05:31:20;4.10;50.30
47845;DHT22;33605;48.822;8.796;2024-03-08T05:33:48;4.10;50.40
47845;DHT22;33605;48.822;8.796;2024-03-08T05:36:14;4.10;50.30
47845;DHT22;33605;48.822;8.796;2024-03-08T05:38:43;4.10;50.40
47845;DHT22;33605;48.822;8.796;2024-03-08T05:41:09;4.10;50.40
47845;DHT22;33605;48.822;8.796;2024-03-08T05:43:35;4.10;50.40
47845;DHT22;33605;48.822;8.796;2024-03-08T05:46:00;4.00;50.20
47845;DHT22;33605;48.822;8.796;2024-03-08T05:48:26;4.00;50.10
47845;DHT22;33605;48.822;8.796;2024-03-08T05:50:51;4.00;50.00
47845;DHT22;33605;48.822;8.796;2024-03-08T05:53:17;4.00;50.00
47845;DHT22;33605;48.822;8.796;2024-03-08T05:55:43;4.00;50.00
47845;DHT22;33605;48.822;8.796;2024-03-08T05:58:09;4.00;49.90
47845;DHT22;33605;48.822;8.796;2024-03-08T06:00:36;4.00;49.90
47845;DHT22;33605;48.822;8.796;2024-03-08T06:03:02;4.00;49.90
47845;DHT22;33605;48.822;8.796;2024-03-08T06:05:28;4.00;49.90
47845;DHT22;33605;48.822;8.796;2024-03-08T06:07:53;4.00;50.40
47845;DHT22;33605;48.822;8.796;2024-03-08T06:10:20;4.10;49.90
47845;DHT22;33605;48.822;8.796;2024-03-08T06:12:45;4.10;49.80
47845;DHT22;33605;48.822;8.796;2024-03-08T06:15:11;4.10;49.80
47845;DHT22;33605;48.822;8.796;2024-03-08T06:17:40;4.10;49.90
47845;DHT22;33605;48.822;8.796;2024-03-08T06:20:06;4.10;50.40
47845;DHT22;33605;48.822;8.796;2024-03-08T06:22:42;4.10;49.80
47845;DHT22;33605;48.822;8.796;2024-03-08T06:25:08;4.10;49.80
47845;DHT22;33605;48.822;8.796;2024-03-08T06:27:34;4.10;49.70
47845;DHT22;33605;48.822;8.796;2024-03-08T06:30:00;4.20;49.80
47845;DHT22;33605;48.822;8.796;2024-03-08T06:32:26;4.20;49.80
47845;DHT22;33605;48.822;8.796;2024-03-08T06:34:52;4.20;49.90
47845;DHT22;33605;48.822;8.796;2024-03-08T06:37:17;4.20;49.90
47845;DHT22;33605;48.822;8.796;2024-03-08T06:39:50;4.30;50.00
47845;DHT22;33605;48.822;8.796;2024-03-08T06:42:20;4.30;50.10
47845;DHT22;33605;48.822;8.796;2024-03-08T06:44:46;4.30;50.10
47845;DHT22;33605;48.822;8.796;2024-03-08T06:47:17;4.40;50.20
47845;DHT22;33605;48.822;8.796;2024-03-08T06:49:43;4.40;50.20
47845;DHT22;33605;48.822;8.796;2024-03-08T06:52:10;4.40;50.10
47845;DHT22;33605;48.822;8.796;2024-03-08T06:54:36;4.50;50.20
47845;DHT22;33605;48.822;8.796;2024-03-08T06:57:05;4.50;50.20
47845;DHT22;33605;48.822;8.796;2024-03-08T06:59:33;4.60;50.30
47845;DHT22;33605;48.822;8.796;2024-03-08T07:02:01;4.60;50.20
47845;DHT22;33605;48.822;8.796;2024-03-08T07:04:27;4.60;50.20
47845;DHT22;33605;48.822;8.796;2024-03-08T07:06:56;4.70;50.30
47845;DHT22;33605;48.822;8.796;2024-03-08T07:09:23;4.80;50.30
47845;DHT22;33605;48.822;8.796;2024-03-08T07:11:50;4.80;50.30
47845;DHT22;33605;48.822;8.796;2024-03-08T07:14:24;4.80;50.30
47845;DHT22;33605;48.822;8.796;2024-03-08T07:16:50;4.90;50.40
47845;DHT22;33605;48.822;8.796;2024-03-08T07:19:16;4.90;50.30
47845;DHT22;33605;48.822;8.796;2024-03-08T07:21:43;5.00;50.40
47845;DHT22;33605;48.822;8.796;2024-03-08T07:24:10;5.10;50.50
47845;DHT22;33605;48.822;8.796;2024-03-08T07:26:47;5.00;50.40
47845;DHT22;33605;48.822;8.796;2024-03-08T07:29:17;5.10;50.60
47845;DHT22;33605;48.822;8.796;2024-03-08T07:31:43;5.10;50.50
47845;DHT22;33605;48.822;8.796;2024-03-08T07:34:27;5.20;50.60
47845;DHT22;33605;48.822;8.796;2024-03-08T07:36:57;5.30;50.60
47845;DHT22;33605;48.822;8.796;2024-03-08T07:39:23;5.30;51.20
47845;DHT22;33605;48.822;8.796;2024-03-08T07:41:49;5.40;51.00
47845;DHT22;33605;48.822;8.796;2024-03-08T07:44:20;5.50;51.20
47845;DHT22;33605;48.822;8.796;2024-03-08T07:46:46;5.50;51.10
47845;DHT22;33605;48.822;8.796;2024-03-08T07:49:11;5.60;51.20
47845;DHT22;33605;48.822;8.796;2024-03-08T07:51:38;5.70;51.30
47845;DHT22;33605;48.822;8.796;2024-03-08T20:50:33;12.30;31.00
47845;DHT22;33605;48.822;8.796;2024-03-08T20:53:06;9.40;36.30
47845;DHT22;33605;48.822;8.796;2024-03-08T20:55:37;9.30;36.30
47845;DHT22;33605;48.822;8.796;2024-03-08T20:58:10;9.20;36.20
47845;DHT22;33605;48.822;8.796;2024-03-08T21:00:35;9.20;36.30
47845;DHT22;33605;48.822;8.796;2024-03-08T21:03:05;9.20;36.40
47845;DHT22;33605;48.822;8.796;2024-03-08T21:05:33;9.10;36.40
47845;DHT22;33605;48.822;8.796;2024-03-08T21:08:00;9.10;36.40
47845;DHT22;33605;48.822;8.796;2024-03-08T21:10:28;9.00;36.30
47845;DHT22;33605;48.822;8.796;2024-03-08T21:12:57;9.00;36.40
47845;DHT22;33605;48.822;8.796;2024-03-08T21:15:24;9.00;36.40
47845;DHT22;33605;48.822;8.796;2024-03-08T21:17:50;8.90;36.40
47845;DHT22;33605;48.822;8.796;2024-03-08T21:20:17;8.90;36.60
47845;DHT22;33605;48.822;8.796;2024-03-08T21:22:46;8.80;36.40
47845;DHT22;33605;48.822;8.796;2024-03-08T21:25:15;8.80;36.40
47845;DHT22;33605;48.822;8.796;2024-03-08T21:27:45;8.80;36.50
47845;DHT22;33605;48.822;8.796;2024-03-08T21:30:17;8.70;36.50
47845;DHT22;33605;48.822;8.796;2024-03-08T21:32:44;8.70;36.60
47845;DHT22;33605;48.822;8.796;2024-03-08T21:35:09;8.60;36.70
47845;DHT22;33605;48.822;8.796;2024-03-08T21:37:35;8.60;36.80
47845;DHT22;33605;48.822;8.796;2024-03-08T21:40:05;8.60;36.80
47845;DHT22;33605;48.822;8.796;2024-03-08T21:42:44;8.50;36.70
47845;DHT22;33605;48.822;8.796;2024-03-08T21:45:10;8.50;36.80
47845;DHT22;33605;48.822;8.796;2024-03-08T21:47:37;8.40;36.80
47845;DHT22;33605;48.822;8.796;2024-03-08T21:50:04;8.40;36.90
47845;DHT22;33605;48.822;8.796;2024-03-08T21:52:30;8.30;36.90
47845;DHT22;33605;48.822;8.796;2024-03-08T21:54:56;8.30;37.00
47845;DHT22;33605;48.822;8.796;2024-03-08T21:57:22;8.20;37.00
47845;DHT22;33605;48.822;8.796;2024-03-08T21:59:47;8.20;37.20
47845;DHT22;33605;48.822;8.796;2024-03-08T22:02:13;8.10;37.30
47845;DHT22;33605;48.822;8.796;2024-03-08T22:04:39;8.10;37.60
47845;DHT22;33605;48.822;8.796;2024-03-08T22:07:05;8.00;37.60
47845;DHT22;33605;48.822;8.796;2024-03-08T22:09:31;8.00;37.70
47845;DHT22;33605;48.822;8.796;2024-03-08T22:11:56;8.00;37.90
47845;DHT22;33605;48.822;8.796;2024-03-08T22:14:23;7.90;37.90
47845;DHT22;33605;48.822;8.796;2024-03-08T22:16:49;7.90;38.00
47845;DHT22;33605;48.822;8.796;2024-03-08T22:19:15;7.90;38.00
47845;DHT22;33605;48.822;8.796;2024-03-08T22:21:40;7.90;38.00
47845;DHT22;33605;48.822;8.796;2024-03-08T22:24:06;7.80;37.90
47845;DHT22;33605;48.822;8.796;2024-03-08T22:26:32;7.80;37.90
47845;DHT22;33605;48.822;8.796;2024-03-08T22:29:00;7.70;37.80
47845;DHT22;33605;48.822;8.796;2024-03-08T22:31:26;7.70;37.90
47845;DHT22;33605;48.822;8.796;2024-03-08T22:33:52;7.70;38.00
47845;DHT22;33605;48.822;8.796;2024-03-08T22:36:18;7.60;38.00
47845;DHT22;33605;48.822;8.796;2024-03-08T22:38:45;7.60;38.20
47845;DHT22;33605;48.822;8.796;2024-03-08T22:41:10;7.60;38.40
47845;DHT22;33605;48.822;8.796;2024-03-08T22:43:36;7.50;38.50
47845;DHT22;33605;48.822;8.796;2024-03-08T22:46:05;7.50;38.50
47845;DHT22;33605;48.822;8.796;2024-03-08T22:48:32;7.40;38.60
47845;DHT22;33605;48.822;8.796;2024-03-08T22:50:59;7.40;38.70
47845;DHT22;33605;48.822;8.796;2024-03-08T22:53:25;7.30;38.70
47845;DHT22;33605;48.822;8.796;2024-03-08T22:55:53;7.30;38.80
47845;DHT22;33605;48.822;8.796;2024-03-08T22:58:22;7.30;39.00
47845;DHT22;33605;48.822;8.796;2024-03-08T23:00:48;7.30;39.30
47845;DHT22;33605;48.822;8.796;2024-03-08T23:03:27;7.20;39.40
47845;DHT22;33605;48.822;8.796;2024-03-08T23:05:57;7.20;39.40
47845;DHT22;33605;48.822;8.796;2024-03-08T23:08:23;7.20;39.50
47845;DHT22;33605;48.822;8.796;2024-03-08T23:10:51;7.20;39.60
47845;DHT22;33605;48.822;8.796;2024-03-08T23:13:17;7.20;39.70
47845;DHT22;33605;48.822;8.796;2024-03-08T23:15:44;7.20;39.80
47845;DHT22;33605;48.822;8.796;2024-03-08T23:18:11;7.20;39.80
47845;DHT22;33605;48.822;8.796;2024-03-08T23:20:39;7.20;39.90
47845;DHT22;33605;48.822;8.796;2024-03-08T23:23:11;7.10;39.70
47845;DHT22;33605;48.822;8.796;2024-03-08T23:25:37;7.10;39.70
47845;DHT22;33605;48.822;8.796;2024-03-08T23:28:04;7.10;39.70
47845;DHT22;33605;48.822;8.796;2024-03-08T23:30:32;7.00;39.60
47845;DHT22;33605;48.822;8.796;2024-03-08T23:33:00;7.00;39.70
47845;DHT22;33605;48.822;8.796;2024-03-08T23:35:26;6.90;39.70
47845;DHT22;33605;48.822;8.796;2024-03-08T23:37:57;6.90;39.80
47845;DHT22;33605;48.822;8.796;2024-03-08T23:40:22;6.90;39.90
47845;DHT22;33605;48.822;8.796;2024-03-08T23:42:51;6.90;40.00
47845;DHT22;33605;48.822;8.796;2024-03-08T23:45:18;6.90;40.10
47845;DHT22;33605;48.822;8.796;2024-03-08T23:47:55;6.90;40.20
47845;DHT22;33605;48.822;8.796;2024-03-08T23:50:25;6.90;40.30
47845;DHT22;33605;48.822;8.796;2024-03-08T23:53:00;6.80;40.30
47845;DHT22;33605;48.822;8.796;2024-03-08T23:55:30;6.80;40.30
47845;DHT22;33605;48.822;8.796;2024-03-08T23:57:59;6.80;40.50
